createdAt,value
2023-05-11T00:01:03.763Z,1.58
2023-05-11T00:03:32.824Z,2.33
2023-05-11T00:06:01.305Z,0.38
2023-05-11T00:08:29.553Z,1.50
2023-05-11T00:11:00.764Z,1.38
2023-05-11T00:13:29.416Z,0.77
2023-05-11T00:15:57.771Z,0.52
2023-05-11T00:18:26.107Z,0.60
2023-05-11T00:20:54.550Z,0.47
2023-05-11T00:23:22.716Z,0.32
2023-05-11T00:25:51.100Z,0.70
2023-05-11T00:28:19.367Z,0.55
2023-05-11T00:30:47.599Z,1.25
2023-05-11T00:33:15.874Z,2.28
2023-05-11T00:35:44.066Z,2.83
2023-05-11T00:38:12.319Z,1.30
2023-05-11T00:40:40.616Z,0.85
2023-05-11T00:43:08.865Z,0.77
2023-05-11T00:45:37.496Z,4.00
2023-05-11T00:48:06.505Z,0.38
2023-05-11T00:50:36.189Z,1.70
2023-05-11T00:53:04.566Z,0.60
2023-05-11T00:55:32.912Z,0.95
2023-05-11T00:58:06.035Z,5.88
2023-05-11T01:00:34.571Z,3.45
2023-05-11T01:03:03.694Z,0.30
2023-05-11T01:05:50.180Z,0.50
2023-05-11T01:08:53.021Z,1.05
2023-05-11T01:11:53.098Z,0.20
2023-05-11T01:14:26.196Z,0.32
2023-05-11T01:20:07.363Z,1.52
2023-05-11T01:23:04.034Z,2.55
2023-05-11T01:25:48.087Z,0.40
2023-05-11T01:28:30.644Z,1.65
2023-05-11T01:31:10.922Z,1.45
2023-05-11T01:33:46.268Z,0.93
2023-05-11T01:36:16.996Z,0.20
2023-05-11T01:38:48.873Z,0.15
2023-05-11T01:41:22.466Z,0.82
2023-05-11T01:43:59.012Z,0.70
2023-05-11T01:46:30.699Z,0.15
2023-05-11T01:49:00.815Z,0.75
2023-05-11T01:51:34.388Z,2.47
2023-05-11T01:54:06.785Z,1.88
2023-05-11T01:56:37.351Z,1.80
2023-05-11T01:59:06.431Z,0.35
2023-05-11T02:01:36.651Z,1.35
2023-05-11T02:04:07.550Z,0.22
2023-05-11T02:06:38.149Z,1.42
2023-05-11T02:09:10.164Z,0.68
2023-05-11T02:11:40.450Z,0.55
2023-05-11T02:14:10.537Z,0.00
2023-05-11T02:16:39.995Z,0.47
2023-05-11T02:19:08.893Z,2.38
2023-05-11T02:21:39.979Z,0.40
2023-05-11T02:24:09.156Z,0.98
2023-05-11T02:26:37.655Z,0.95
2023-05-11T02:29:05.962Z,0.65
2023-05-11T02:31:41.127Z,0.30
2023-05-11T02:34:27.387Z,0.10
2023-05-11T02:37:01.102Z,0.77
2023-05-11T02:39:35.753Z,0.15
2023-05-11T02:42:25.333Z,0.17
2023-05-11T02:45:17.833Z,0.93
2023-05-11T02:47:56.774Z,4.80
2023-05-11T02:50:30.254Z,2.15
2023-05-11T02:53:03.531Z,0.17
2023-05-11T02:55:32.430Z,0.17
2023-05-11T02:58:01.055Z,0.20
2023-05-11T03:00:30.432Z,0.73
2023-05-11T03:02:59.498Z,1.00
2023-05-11T03:05:28.313Z,0.50
2023-05-11T03:07:59.909Z,1.65
2023-05-11T03:10:29.733Z,0.65
2023-05-11T03:12:58.872Z,1.73
2023-05-11T03:15:28.263Z,2.05
2023-05-11T03:17:59.065Z,1.05
2023-05-11T03:20:28.419Z,1.85
2023-05-11T03:22:57.209Z,0.63
2023-05-11T03:25:26.190Z,0.20
2023-05-11T03:27:55.578Z,0.68
2023-05-11T03:30:25.469Z,0.17
2023-05-11T03:32:57.182Z,0.30
2023-05-11T03:35:29.364Z,0.77
2023-05-11T03:37:59.552Z,0.68
2023-05-11T03:40:33.424Z,2.05
2023-05-11T03:43:04.186Z,1.45
2023-05-11T03:45:34.288Z,2.38
2023-05-11T03:48:08.393Z,0.30
2023-05-11T03:50:38.216Z,1.35
2023-05-11T03:53:06.776Z,0.32
2023-05-11T03:55:35.450Z,0.22
2023-05-11T03:58:10.161Z,0.88
2023-05-11T04:00:40.065Z,0.30
2023-05-11T04:03:09.598Z,1.08
2023-05-11T04:05:40.543Z,0.20
2023-05-11T04:08:11.789Z,0.50
2023-05-11T04:10:40.785Z,1.33
2023-05-11T04:13:09.035Z,0.10
2023-05-11T04:15:37.750Z,0.05
2023-05-11T04:18:06.603Z,0.30
2023-05-11T04:20:34.843Z,1.02
2023-05-11T04:23:03.849Z,0.60
2023-05-11T04:25:32.433Z,1.05
2023-05-11T04:28:00.821Z,0.35
2023-05-11T04:30:28.979Z,0.65
2023-05-11T04:32:58.056Z,0.35
2023-05-11T04:35:26.435Z,2.33
2023-05-11T04:37:54.865Z,3.40
2023-05-11T04:40:23.317Z,0.40
2023-05-11T04:42:52.062Z,1.45
2023-05-11T04:45:21.292Z,0.75
2023-05-11T04:47:49.780Z,2.00
2023-05-11T04:50:18.376Z,0.50
2023-05-11T04:52:47.064Z,0.35
2023-05-11T04:55:16.287Z,0.22
2023-05-11T04:57:44.603Z,2.83
2023-05-11T05:00:13.197Z,0.30
2023-05-11T05:02:41.470Z,0.65
2023-05-11T05:05:10.648Z,0.28
2023-05-11T05:07:38.942Z,1.98
2023-05-11T05:10:09.124Z,0.85
2023-05-11T05:12:37.554Z,0.25
2023-05-11T05:15:06.806Z,1.88
2023-05-11T05:17:35.115Z,0.38
2023-05-11T05:20:04.606Z,0.65
2023-05-11T05:22:33.332Z,0.57
2023-05-11T05:25:01.676Z,0.60
2023-05-11T05:27:33.427Z,4.07
2023-05-11T05:32:32.287Z,1.75
2023-05-11T05:35:01.043Z,0.30
2023-05-11T05:37:29.713Z,1.23
2023-05-11T05:39:57.955Z,0.50
2023-05-11T05:42:26.616Z,1.08
2023-05-11T05:44:55.099Z,1.35
2023-05-11T05:47:24.037Z,1.98
2023-05-11T05:49:52.495Z,0.95
2023-05-11T05:52:20.972Z,0.98
2023-05-11T05:54:50.574Z,2.40
2023-05-11T05:57:18.999Z,2.08
2023-05-11T05:59:47.592Z,1.58
2023-05-11T06:02:19.239Z,4.50
2023-05-11T06:04:47.768Z,4.03
2023-05-11T06:07:16.036Z,2.10
2023-05-11T06:09:44.294Z,2.33
2023-05-11T06:12:12.720Z,2.45
2023-05-11T06:14:45.419Z,8.80
2023-05-11T06:17:14.259Z,2.55
2023-05-11T06:19:42.723Z,1.80
2023-05-11T06:22:11.550Z,2.55
2023-05-11T06:24:39.888Z,0.80
2023-05-11T06:27:08.594Z,1.67
2023-05-11T06:29:37.141Z,2.67
2023-05-11T06:32:06.465Z,1.30
2023-05-11T06:34:35.906Z,2.08
2023-05-11T06:37:04.650Z,1.85
2023-05-11T06:39:37.682Z,1.90
2023-05-11T06:42:09.064Z,1.15
2023-05-11T06:44:38.544Z,2.05
2023-05-11T06:47:08.680Z,0.75
2023-05-11T06:49:36.961Z,1.38
2023-05-11T06:52:05.189Z,2.45
2023-05-11T06:54:34.139Z,1.35
2023-05-11T06:57:03.757Z,0.85
2023-05-11T06:59:32.598Z,8.80
2023-05-11T07:02:00.854Z,1.52
2023-05-11T07:04:29.900Z,2.05
2023-05-11T07:06:58.202Z,1.27
2023-05-11T07:09:26.598Z,3.75
2023-05-11T07:11:54.874Z,1.42
2023-05-11T07:14:23.251Z,2.47
2023-05-11T07:16:52.988Z,3.30
2023-05-11T07:19:21.464Z,3.42
2023-05-11T07:21:49.723Z,1.33
2023-05-11T07:24:18.072Z,3.33
2023-05-11T07:26:46.245Z,1.55
2023-05-11T07:29:14.509Z,1.48
2023-05-11T07:31:43.078Z,3.10
2023-05-11T07:34:11.413Z,3.08
2023-05-11T07:36:39.785Z,3.22
2023-05-11T07:39:08.623Z,1.00
2023-05-11T07:41:36.844Z,2.83
2023-05-11T07:44:05.802Z,2.38
2023-05-11T07:46:34.234Z,4.90
2023-05-11T07:49:14.484Z,2.10
2023-05-11T07:51:47.118Z,3.40
2023-05-11T07:54:15.538Z,2.42
2023-05-11T07:56:43.998Z,1.27
2023-05-11T07:59:12.300Z,1.13
2023-05-11T08:01:40.539Z,1.85
2023-05-11T08:04:08.896Z,2.53
2023-05-11T08:06:37.123Z,1.88
2023-05-11T08:09:06.052Z,1.67
2023-05-11T08:11:35.084Z,3.20
2023-05-11T08:14:04.256Z,3.72
2023-05-11T08:16:33.174Z,2.10
2023-05-11T08:19:01.401Z,4.70
2023-05-11T08:21:30.040Z,2.25
2023-05-11T08:23:58.347Z,2.80
2023-05-11T08:26:26.512Z,2.22
2023-05-11T08:28:57.093Z,1.52
2023-05-11T08:31:25.588Z,1.77
2023-05-11T08:33:54.088Z,1.75
2023-05-11T08:36:22.862Z,1.65
2023-05-11T08:38:52.417Z,4.97
2023-05-11T08:41:21.740Z,4.43
2023-05-11T08:43:50.379Z,3.40
2023-05-11T08:46:23.962Z,2.33
2023-05-11T08:48:52.767Z,0.70
2023-05-11T08:51:22.583Z,1.15
2023-05-11T08:53:53.011Z,1.80
2023-05-11T08:56:22.514Z,2.13
2023-05-11T08:58:53.636Z,1.95
2023-05-11T09:01:25.401Z,1.37
2023-05-11T09:03:54.048Z,1.52
2023-05-11T09:06:24.236Z,2.17
2023-05-11T09:08:53.283Z,3.13
2023-05-11T09:11:22.957Z,4.75
2023-05-11T09:13:52.287Z,2.35
2023-05-11T09:16:32.906Z,2.25
2023-05-11T09:19:06.463Z,3.92
2023-05-11T09:21:34.873Z,2.20
2023-05-11T09:24:03.629Z,2.17
2023-05-11T09:26:34.484Z,2.00
2023-05-11T09:29:04.045Z,1.65
2023-05-11T09:31:45.921Z,3.03
2023-05-11T09:34:19.684Z,2.58
2023-05-11T09:36:54.691Z,4.68
2023-05-11T09:39:45.366Z,3.13
2023-05-11T09:42:25.756Z,2.65
2023-05-11T09:44:54.072Z,3.35
2023-05-11T09:47:22.692Z,2.10
2023-05-11T09:49:51.012Z,2.70
2023-05-11T09:52:21.298Z,3.40
2023-05-11T09:54:51.960Z,3.85
2023-05-11T09:57:28.533Z,3.80
2023-05-11T09:59:58.781Z,2.92
2023-05-11T10:02:29.453Z,0.90
2023-05-11T10:05:00.066Z,3.30
2023-05-11T10:07:30.878Z,6.18
2023-05-11T10:10:03.406Z,0.88
2023-05-11T10:12:38.206Z,1.47
2023-05-11T10:15:09.205Z,3.33
2023-05-11T10:17:38.238Z,3.83
2023-05-11T10:20:07.156Z,2.50
2023-05-11T10:22:36.851Z,1.40
2023-05-11T10:25:06.614Z,1.38
2023-05-11T10:27:36.856Z,0.82
2023-05-11T10:30:07.740Z,2.83
2023-05-11T10:32:38.113Z,2.38
2023-05-11T10:35:07.568Z,1.80
2023-05-11T10:37:36.040Z,1.80
2023-05-11T10:40:04.893Z,2.53
2023-05-11T10:43:10.396Z,3.05
2023-05-11T10:45:57.580Z,3.30
2023-05-11T10:48:31.777Z,3.67
2023-05-11T10:51:05.649Z,5.90
2023-05-11T10:54:03.346Z,2.28
2023-05-11T10:56:43.690Z,2.72
2023-05-11T10:59:37.610Z,5.13
2023-05-11T11:02:08.225Z,3.65
2023-05-11T11:04:45.207Z,3.15
2023-05-11T11:07:18.191Z,2.85
2023-05-11T11:09:52.605Z,2.22
2023-05-11T11:12:21.411Z,2.38
2023-05-11T11:14:55.760Z,1.90
2023-05-11T11:17:29.157Z,5.88
2023-05-11T11:22:36.052Z,1.73
2023-05-11T11:25:05.771Z,1.92
2023-05-11T11:27:40.726Z,1.10
2023-05-11T11:30:25.564Z,1.58
2023-05-11T11:33:08.891Z,1.13
2023-05-11T11:35:43.208Z,1.00
2023-05-11T11:38:17.577Z,2.05
2023-05-11T11:40:51.083Z,0.77
2023-05-11T11:43:22.022Z,2.17
2023-05-11T11:45:54.569Z,1.63
2023-05-11T11:48:33.702Z,3.70
2023-05-11T11:51:19.823Z,1.50
2023-05-11T11:53:51.266Z,2.03
2023-05-11T11:56:22.436Z,1.17
2023-05-11T11:58:50.739Z,1.92
2023-05-11T12:01:23.486Z,3.65
2023-05-11T12:04:04.418Z,1.90
2023-05-11T12:06:41.197Z,4.10
2023-05-11T12:09:09.759Z,3.80
2023-05-11T12:11:38.590Z,5.18
2023-05-11T12:14:09.164Z,6.05
2023-05-11T12:16:37.566Z,4.45
2023-05-11T12:19:06.181Z,2.40
2023-05-11T12:21:34.478Z,0.98
2023-05-11T12:24:04.832Z,2.03
2023-05-11T12:26:35.363Z,2.05
2023-05-11T12:29:16.526Z,2.30
2023-05-11T12:31:48.748Z,1.90
2023-05-11T12:34:18.732Z,5.68
2023-05-11T12:36:48.417Z,2.15
2023-05-11T12:39:20.720Z,1.75
2023-05-11T12:41:50.473Z,2.35
2023-05-11T12:44:20.210Z,2.08
2023-05-11T12:46:49.721Z,2.05
2023-05-11T12:49:26.403Z,1.80
2023-05-11T12:52:08.946Z,1.13
2023-05-11T12:54:41.838Z,2.83
2023-05-11T12:57:24.071Z,1.65
2023-05-11T13:00:08.049Z,2.13
2023-05-11T13:02:43.969Z,3.28
2023-05-11T13:05:14.315Z,1.15
2023-05-11T13:07:44.460Z,2.17
2023-05-11T13:10:16.267Z,2.03
2023-05-11T13:12:52.104Z,2.20
2023-05-11T13:15:22.263Z,1.35
2023-05-11T13:17:58.368Z,2.25
2023-05-11T13:20:27.510Z,1.45
2023-05-11T13:23:10.522Z,2.75
2023-05-11T13:25:51.632Z,2.58
2023-05-11T13:28:24.221Z,1.20
2023-05-11T13:31:02.250Z,0.90
2023-05-11T13:33:31.186Z,5.50
2023-05-11T13:35:59.371Z,1.20
2023-05-11T13:38:27.651Z,2.67
2023-05-11T13:40:55.928Z,2.30
2023-05-11T13:43:24.228Z,2.10
2023-05-11T13:45:52.541Z,3.70
2023-05-11T13:48:20.843Z,1.40
2023-05-11T13:50:49.215Z,2.33
2023-05-11T13:53:17.490Z,2.28
2023-05-11T13:55:45.910Z,2.20
2023-05-11T13:58:14.106Z,1.48
2023-05-11T14:00:46.285Z,3.72
2023-05-11T14:03:20.525Z,1.60
2023-05-11T14:05:49.849Z,4.30
2023-05-11T14:08:18.113Z,2.28
2023-05-11T14:10:46.490Z,2.75
2023-05-11T14:13:15.072Z,2.08
2023-05-11T14:15:43.433Z,1.95
2023-05-11T14:18:11.754Z,3.45
2023-05-11T14:20:42.282Z,1.63
2023-05-11T14:23:11.682Z,6.20
2023-05-11T14:25:39.968Z,3.70
2023-05-11T14:28:08.198Z,6.60
2023-05-11T14:30:36.889Z,4.95
2023-05-11T14:33:05.620Z,7.70
2023-05-11T14:35:34.222Z,2.85
2023-05-11T14:38:04.646Z,3.05
2023-05-11T14:40:33.351Z,2.30
2023-05-11T14:43:01.721Z,5.53
2023-05-11T14:45:29.980Z,4.18
2023-05-11T14:47:58.420Z,4.43
2023-05-11T14:50:28.295Z,7.20
2023-05-11T14:52:56.721Z,2.60
2023-05-11T14:55:25.056Z,2.92
2023-05-11T14:57:54.200Z,3.78
2023-05-11T15:00:23.099Z,2.88
2023-05-11T15:02:51.915Z,3.78
2023-05-11T15:05:20.521Z,4.47
2023-05-11T15:07:48.881Z,3.50
2023-05-11T15:10:17.269Z,3.78
2023-05-11T15:12:45.491Z,5.68
2023-05-11T15:15:14.214Z,5.60
2023-05-11T15:17:42.451Z,4.68
2023-05-11T15:20:11.002Z,3.58
2023-05-11T15:22:39.363Z,4.85
2023-05-11T15:25:08.108Z,3.15
2023-05-11T15:27:36.850Z,6.47
2023-05-11T15:30:06.355Z,3.88
2023-05-11T15:32:34.763Z,2.88
2023-05-11T15:35:03.025Z,3.42
2023-05-11T15:37:32.269Z,4.30
2023-05-11T15:40:00.602Z,3.35
2023-05-11T15:42:29.180Z,3.08
2023-05-11T15:44:57.590Z,3.78
2023-05-11T15:47:26.049Z,2.45
2023-05-11T15:49:54.597Z,2.83
2023-05-11T15:52:22.940Z,3.30
2023-05-11T15:54:51.158Z,3.15
2023-05-11T15:57:19.433Z,2.85
2023-05-11T15:59:47.807Z,3.35
2023-05-11T16:02:16.250Z,2.78
2023-05-11T16:04:44.583Z,5.35
2023-05-11T16:07:12.896Z,3.22
2023-05-11T16:09:41.166Z,4.63
2023-05-11T16:12:09.600Z,3.22
2023-05-11T16:14:37.900Z,3.28
2023-05-11T16:17:07.180Z,6.25
2023-05-11T16:19:36.774Z,6.10
2023-05-11T16:22:05.148Z,3.28
2023-05-11T16:24:34.510Z,3.30
2023-05-11T16:27:03.307Z,6.88
2023-05-11T16:29:32.138Z,5.13
2023-05-11T16:32:00.500Z,4.47
2023-05-11T16:34:29.140Z,4.38
2023-05-11T16:36:58.967Z,6.72
2023-05-11T16:39:27.677Z,6.40
2023-05-11T16:41:55.947Z,11.40
2023-05-11T16:44:24.843Z,8.35
2023-05-11T16:46:53.525Z,4.10
2023-05-11T16:49:22.169Z,3.88
2023-05-11T16:51:51.727Z,8.38
2023-05-11T16:54:20.591Z,10.80
2023-05-11T16:56:49.027Z,4.00
2023-05-11T16:59:17.489Z,3.65
2023-05-11T17:01:46.379Z,3.60
2023-05-11T17:04:15.039Z,3.70
2023-05-11T17:06:43.628Z,5.00
2023-05-11T17:09:12.195Z,3.78
2023-05-11T17:11:40.624Z,5.07
2023-05-11T17:14:08.920Z,5.05
2023-05-11T17:16:37.410Z,5.10
2023-05-11T17:19:05.701Z,5.95
2023-05-11T17:21:34.122Z,6.10
2023-05-11T17:24:02.404Z,7.22
2023-05-11T17:26:39.565Z,4.60
2023-05-11T17:29:12.041Z,3.75
2023-05-11T17:31:40.934Z,4.35
2023-05-11T17:34:09.425Z,5.35
2023-05-11T17:36:37.838Z,5.30
2023-05-11T17:39:06.189Z,6.03
2023-05-11T17:41:34.429Z,5.93
2023-05-11T17:44:02.736Z,6.20
2023-05-11T17:46:31.130Z,5.72
2023-05-11T17:48:59.453Z,5.32
2023-05-11T17:51:27.941Z,4.72
2023-05-11T17:53:56.379Z,5.32
2023-05-11T17:56:24.826Z,5.10
2023-05-11T17:58:53.056Z,8.77
2023-05-11T18:01:22.723Z,7.90
2023-05-11T18:03:51.273Z,6.00
2023-05-11T18:06:19.636Z,7.57
2023-05-11T18:08:48.723Z,6.28
2023-05-11T18:11:17.006Z,12.65
2023-05-11T18:13:46.124Z,6.35
2023-05-11T18:16:14.497Z,5.70
2023-05-11T18:18:43.277Z,5.60
2023-05-11T18:21:11.857Z,6.55
2023-05-11T18:23:40.191Z,6.90
2023-05-11T18:26:08.439Z,6.38
2023-05-11T18:28:36.912Z,6.10
2023-05-11T18:31:05.173Z,6.15
2023-05-11T18:33:33.592Z,6.25
2023-05-11T18:36:03.452Z,8.93
2023-05-11T18:38:50.337Z,7.03
2023-05-11T18:41:18.714Z,7.18
2023-05-11T18:43:50.042Z,8.75
2023-05-11T18:46:18.385Z,6.65
2023-05-11T18:48:46.688Z,5.18
2023-05-11T18:51:18.904Z,8.40
2023-05-11T18:53:47.232Z,6.78
2023-05-11T18:56:16.769Z,7.90
2023-05-11T18:58:46.436Z,6.82
2023-05-11T19:01:15.348Z,7.53
2023-05-11T19:03:44.032Z,7.32
2023-05-11T19:06:12.325Z,10.95
2023-05-11T19:08:40.912Z,8.75
2023-05-11T19:11:10.634Z,11.20
2023-05-11T19:13:39.114Z,13.65
2023-05-11T19:16:07.746Z,7.72
2023-05-11T19:18:37.166Z,7.70
2023-05-11T19:21:06.076Z,7.13
2023-05-11T19:23:34.559Z,9.63
2023-05-11T19:26:03.171Z,9.30
2023-05-11T19:28:31.494Z,7.50
2023-05-11T19:31:06.441Z,9.45
2023-05-11T19:33:35.018Z,8.75
2023-05-11T19:36:03.627Z,10.48
2023-05-11T19:38:32.046Z,9.68
2023-05-11T19:41:00.774Z,9.52
2023-05-11T19:43:29.083Z,10.35
2023-05-11T19:45:57.497Z,9.63
2023-05-11T19:48:25.805Z,9.77
2023-05-11T19:50:54.151Z,10.35
2023-05-11T19:53:22.612Z,10.15
2023-05-11T19:55:50.901Z,10.68
2023-05-11T19:58:19.423Z,10.10
2023-05-11T20:00:47.948Z,13.25
2023-05-11T20:03:16.598Z,11.90
2023-05-11T20:05:45.547Z,12.80
2023-05-11T20:08:14.266Z,11.70
2023-05-11T20:10:44.113Z,10.95
2023-05-11T20:13:12.576Z,11.52
2023-05-11T20:15:40.975Z,12.55
2023-05-11T20:18:09.515Z,12.80
2023-05-11T20:20:37.961Z,10.40
2023-05-11T20:23:06.509Z,13.65
2023-05-11T20:25:34.884Z,17.00
2023-05-11T20:28:03.645Z,14.35
2023-05-11T20:30:32.159Z,13.82
2023-05-11T20:35:33.031Z,14.32
2023-05-11T20:38:01.921Z,14.15
2023-05-11T20:40:30.430Z,13.80
2023-05-11T20:42:58.688Z,18.23
2023-05-11T20:45:27.523Z,14.15
2023-05-11T20:47:55.920Z,15.32
2023-05-11T20:50:24.627Z,14.65
2023-05-11T20:52:52.985Z,15.90
2023-05-11T20:55:21.449Z,16.33
2023-05-11T20:57:49.786Z,17.80
2023-05-11T21:00:18.223Z,13.18
2023-05-11T21:02:46.599Z,14.95
2023-05-11T21:05:15.178Z,15.45
2023-05-11T21:07:43.430Z,16.65
2023-05-11T21:10:12.766Z,15.38
2023-05-11T21:12:40.996Z,15.23
2023-05-11T21:15:09.887Z,17.90
2023-05-11T21:17:38.177Z,16.35
2023-05-11T21:20:07.514Z,17.13
2023-05-11T21:22:36.649Z,18.33
2023-05-11T21:25:06.338Z,19.48
2023-05-11T21:27:35.120Z,17.23
2023-05-11T21:30:03.832Z,20.08
2023-05-11T21:32:32.562Z,18.38
2023-05-11T21:35:00.833Z,20.65
2023-05-11T21:37:33.304Z,17.58
2023-05-11T21:40:01.912Z,17.23
2023-05-11T21:42:34.647Z,17.58
2023-05-11T21:45:04.129Z,16.58
2023-05-11T21:47:32.940Z,18.20
2023-05-11T21:50:01.148Z,17.90
2023-05-11T21:52:29.570Z,19.42
2023-05-11T21:54:57.974Z,19.73
2023-05-11T21:57:26.461Z,17.10
2023-05-11T21:59:54.733Z,18.90
2023-05-11T22:02:23.964Z,18.70
2023-05-11T22:04:52.194Z,16.17
2023-05-11T22:07:20.471Z,14.05
2023-05-11T22:09:49.102Z,13.65
2023-05-11T22:12:17.438Z,15.45
2023-05-11T22:14:45.976Z,12.65
2023-05-11T22:17:14.243Z,11.90
2023-05-11T22:19:42.429Z,13.43
2023-05-11T22:22:10.702Z,11.63
2023-05-11T22:24:38.985Z,12.25
2023-05-11T22:27:09.994Z,14.45
2023-05-11T22:29:38.189Z,11.32
2023-05-11T22:32:07.147Z,12.23
2023-05-11T22:34:35.525Z,11.85
2023-05-11T22:37:05.133Z,11.73
2023-05-11T22:39:33.747Z,11.52
2023-05-11T22:42:02.173Z,13.63
2023-05-11T22:44:30.349Z,12.05
2023-05-11T22:46:59.876Z,15.27
2023-05-11T22:49:28.940Z,13.43
2023-05-11T22:51:59.540Z,11.30
2023-05-11T22:54:27.921Z,12.05
2023-05-11T22:56:56.071Z,11.25
2023-05-11T22:59:24.397Z,12.25
2023-05-11T23:01:52.709Z,11.93
2023-05-11T23:04:20.882Z,13.52
2023-05-11T23:06:49.076Z,12.93
2023-05-11T23:09:17.264Z,12.45
2023-05-11T23:11:45.838Z,13.75
2023-05-11T23:14:14.038Z,11.30
2023-05-11T23:16:42.373Z,11.35
2023-05-11T23:19:10.811Z,12.50
2023-05-11T23:21:39.120Z,10.75
2023-05-11T23:24:07.740Z,13.85
2023-05-11T23:26:37.138Z,12.15
2023-05-11T23:29:05.435Z,11.02
2023-05-11T23:31:34.284Z,10.80
2023-05-11T23:34:02.697Z,12.10
2023-05-11T23:36:30.905Z,10.57
2023-05-11T23:38:59.607Z,11.32
2023-05-11T23:41:27.858Z,8.95
2023-05-11T23:43:56.126Z,7.90
2023-05-11T23:46:24.890Z,8.90
2023-05-11T23:48:53.042Z,9.07
2023-05-11T23:51:21.233Z,7.80
2023-05-11T23:53:49.528Z,11.77
2023-05-11T23:56:17.716Z,6.78
2023-05-11T23:58:46.256Z,6.20
